Time;durP1;ratioP1;P1;durP2;ratioP2;P2;SDS_P1;SDS_P2;PMS_P1;PMS_P2;Temp;Humidity;BMP_temperature;BMP_pressure;BME280_temperature;BME280_humidity;BME280_pressure;Samples;Min_cycle;Max_cycle;Signal;HPM_P1;HPM_P2
2023/10/27 11:32:14;;;;;;;1.00;1.00;;;;;;;;;;6259975;22;20446;-86
2023/10/27 11:34:39;;;;;;;1.27;1.17;;;;;;;;;;6278326;22;20012;-86
2023/10/27 11:37:07;;;;;;;1.27;1.17;;;;;;;;;;6278243;22;20116;-86
2023/10/27 11:39:33;;;;;;;5.43;0.98;;;;;;;;;;6278661;22;20010;-86
2023/10/27 11:42:00;;;;;;;1.00;0.80;;;;;;;;;;6278665;22;20011;-86
2023/10/27 11:44:31;;;;;;;4.68;1.15;;;;;;;;;;6278389;22;20391;-86
2023/10/27 15:59:13;;;;;;;2.72;1.88;;;;;;;;;;6238985;22;20028;-84
2023/10/27 16:01:39;;;;;;;1.98;1.85;;;;;;;;;;6274419;22;20016;-86
2023/10/27 16:04:05;;;;;;;2.05;1.58;;;;;;;;;;6278138;22;20003;-85
2023/10/27 16:06:30;;;;;;;1.40;1.30;;;;;;;;;;6277930;22;20075;-85
2023/10/27 16:08:56;;;;;;;1.60;1.50;;;;;;;;;;6250564;22;20008;-86
2023/10/27 16:11:24;;;;;;;2.75;2.00;;;;;;;;;;6278118;22;20053;-85
2023/10/27 16:13:49;;;;;;;5.25;1.85;;;;;;;;;;6277965;22;20422;-86
2023/10/27 16:16:17;;;;;;;4.82;1.40;;;;;;;;;;6278045;22;20046;-85
2023/10/27 16:18:43;;;;;;;11.25;7.47;;;;;;;;;;6277753;22;20000;-85
2023/10/27 16:21:09;;;;;;;3.63;1.63;;;;;;;;;;6277889;22;19999;-86
2023/10/27 16:23:34;;;;;;;2.13;1.60;;;;;;;;;;6277957;22;20058;-85
2023/10/27 16:26:05;;;;;;;2.50;1.38;;;;;;;;;;6250635;22;20006;-85
2023/10/27 16:28:31;;;;;;;1.80;1.38;;;;;;;;;;6250521;22;20018;-85
2023/10/27 16:31:01;;;;;;;1.45;1.35;;;;;;;;;;6250705;22;20050;-85
2023/10/27 16:33:27;;;;;;;2.58;1.70;;;;;;;;;;6279180;22;20052;-85
2023/10/27 16:35:52;;;;;;;2.50;1.38;;;;;;;;;;6250559;22;20003;-86
2023/10/27 16:38:18;;;;;;;7.35;5.32;;;;;;;;;;6250588;22;20086;-85
2023/10/27 16:40:44;;;;;;;4.68;4.28;;;;;;;;;;6250673;22;20003;-86
2023/10/27 16:43:10;;;;;;;7.68;6.75;;;;;;;;;;6277977;22;20373;-87
2023/10/27 16:45:38;;;;;;;16.85;15.35;;;;;;;;;;6277649;22;19996;-85
2023/10/27 16:48:04;;;;;;;3.08;1.65;;;;;;;;;;6277472;22;20000;-85
2023/10/27 16:50:29;;;;;;;4.38;2.72;;;;;;;;;;6277584;22;20003;-85
2023/10/27 16:52:55;;;;;;;4.05;2.67;;;;;;;;;;6277690;22;20003;-85
2023/10/27 16:55:20;;;;;;;11.27;7.97;;;;;;;;;;6277310;22;20004;-85
2023/10/27 16:57:47;;;;;;;3.17;2.35;;;;;;;;;;6277433;22;20067;-85
2023/10/27 17:00:16;;;;;;;5.95;4.90;;;;;;;;;;6277323;22;20087;-85
2023/10/27 17:02:42;;;;;;;2.53;2.10;;;;;;;;;;6277314;22;19996;-85
2023/10/27 17:05:11;;;;;;;5.75;2.45;;;;;;;;;;6277587;22;20031;-85
2023/10/27 17:07:40;;;;;;;2.63;2.43;;;;;;;;;;6277608;22;20053;-85
2023/10/27 17:10:06;;;;;;;2.03;1.45;;;;;;;;;;6277389;22;20004;-85
2023/10/27 17:12:32;;;;;;;4.80;1.80;;;;;;;;;;6277138;22;20003;-85
2023/10/27 17:14:58;;;;;;;2.35;1.40;;;;;;;;;;6277865;22;20000;-85
2023/10/27 17:17:25;;;;;;;4.35;3.70;;;;;;;;;;6252512;22;20291;-84
2023/10/27 17:19:51;;;;;;;3.85;3.50;;;;;;;;;;6279980;22;20007;-86
2023/10/27 17:22:17;;;;;;;3.40;2.60;;;;;;;;;;6256274;22;20007;-85
2023/10/27 17:24:46;;;;;;;4.00;2.45;;;;;;;;;;6253019;22;20004;-85
2023/10/27 17:27:12;;;;;;;5.55;2.30;;;;;;;;;;6252007;22;20515;-85
2023/10/27 17:29:39;;;;;;;2.35;1.58;;;;;;;;;;6279288;22;20023;-85
2023/10/27 17:32:06;;;;;;;5.50;3.08;;;;;;;;;;6277341;22;20004;-85
2023/10/27 17:34:32;;;;;;;4.72;2.55;;;;;;;;;;6277417;22;20015;-85
2023/10/27 17:36:57;;;;;;;2.85;1.52;;;;;;;;;;6277229;22;20004;-86
2023/10/27 17:39:23;;;;;;;3.40;1.67;;;;;;;;;;6277291;22;20007;-85
2023/10/27 17:41:48;;;;;;;4.65;1.95;;;;;;;;;;6277304;22;20014;-85
2023/10/27 17:44:14;;;;;;;2.60;1.77;;;;;;;;;;6277320;22;20070;-86
2023/10/27 17:46:47;;;;;;;10.80;5.72;;;;;;;;;;6249848;22;20046;-85
2023/10/27 17:49:17;;;;;;;9.52;4.50;;;;;;;;;;6277216;22;19999;-87
2023/10/27 17:51:44;;;;;;;8.43;3.20;;;;;;;;;;6277192;22;20007;-86
2023/10/27 17:54:11;;;;;;;14.93;7.07;;;;;;;;;;6250249;22;20036;-86
2023/10/27 17:56:37;;;;;;;122.30;54.75;;;;;;;;;;6277384;22;20003;-86
2023/10/27 17:59:03;;;;;;;5.50;3.08;;;;;;;;;;6277190;22;20008;-85
2023/10/27 18:01:29;;;;;;;4.72;2.67;;;;;;;;;;6276996;22;20015;-86
2023/10/27 18:03:55;;;;;;;3.78;2.35;;;;;;;;;;6277253;22;20014;-86
2023/10/27 18:06:23;;;;;;;6.28;2.22;;;;;;;;;;6276952;22;20007;-85
2023/10/27 18:08:54;;;;;;;5.68;3.42;;;;;;;;;;6277500;22;20004;-85
2023/10/27 18:11:26;;;;;;;7.57;4.35;;;;;;;;;;6277812;22;20360;-85
2023/10/27 18:13:51;;;;;;;14.43;7.80;;;;;;;;;;6251785;22;20338;-85
2023/10/27 18:16:16;;;;;;;6.68;3.55;;;;;;;;;;6279009;22;20010;-86
2023/10/27 18:18:42;;;;;;;8.65;4.20;;;;;;;;;;6251949;22;19999;-85
2023/10/27 18:21:11;;;;;;;9.52;7.55;;;;;;;;;;6279271;22;20058;-86
2023/10/27 18:23:38;;;;;;;5.13;4.43;;;;;;;;;;6279317;22;20079;-87
2023/10/27 18:26:17;;;;;;;5.75;3.85;;;;;;;;;;6251837;22;20478;-86
2023/10/27 18:28:43;;;;;;;3.47;2.95;;;;;;;;;;6279178;22;20046;-87
2023/10/27 18:31:08;;;;;;;4.47;3.38;;;;;;;;;;6252026;22;19996;-86
2023/10/27 18:33:34;;;;;;;12.63;10.88;;;;;;;;;;6251516;22;20004;-85
2023/10/27 18:36:10;;;;;;;9.43;8.23;;;;;;;;;;6279644;22;20004;-87
2023/10/27 18:38:36;;;;;;;8.18;5.55;;;;;;;;;;6279465;22;20050;-86
2023/10/27 18:41:04;;;;;;;4.68;4.20;;;;;;;;;;6253696;22;20423;-91
2023/10/27 18:43:29;;;;;;;4.90;3.30;;;;;;;;;;6251702;22;20002;-88
2023/10/27 18:45:56;;;;;;;7.95;5.18;;;;;;;;;;6278782;22;20031;-87
2023/10/27 18:48:21;;;;;;;6.68;4.97;;;;;;;;;;6251775;22;20003;-88
2023/10/27 18:50:54;;;;;;;6.45;5.25;;;;;;;;;;6278839;22;20004;-87
2023/10/27 18:53:20;;;;;;;17.30;9.73;;;;;;;;;;6278907;22;20393;-87
2023/10/27 18:55:46;;;;;;;7.18;4.80;;;;;;;;;;6279053;22;20038;-88
2023/10/27 18:58:13;;;;;;;5.55;3.35;;;;;;;;;;6251577;22;20008;-88
2023/10/27 19:00:41;;;;;;;6.03;3.13;;;;;;;;;;6278609;22;20016;-88
2023/10/27 19:03:08;;;;;;;2.85;2.55;;;;;;;;;;6251693;22;20039;-86
2023/10/27 19:05:37;;;;;;;2.97;2.67;;;;;;;;;;6278793;22;20008;-87
2023/10/27 19:08:03;;;;;;;2.65;2.42;;;;;;;;;;6278887;22;20000;-90
2023/10/27 19:10:29;;;;;;;3.72;2.60;;;;;;;;;;6251578;22;20023;-87
2023/10/27 19:12:55;;;;;;;3.90;2.80;;;;;;;;;;6278585;22;20011;-87
2023/10/27 19:15:21;;;;;;;4.57;2.47;;;;;;;;;;6278917;22;20430;-88
2023/10/27 19:17:47;;;;;;;3.58;2.60;;;;;;;;;;6251639;22;20008;-88
2023/10/27 19:20:13;;;;;;;2.88;2.33;;;;;;;;;;6278910;22;20434;-88
2023/10/27 19:22:39;;;;;;;2.65;2.35;;;;;;;;;;6278107;22;20007;-89
2023/10/27 19:25:07;;;;;;;6.07;3.55;;;;;;;;;;6278739;22;20006;-86
2023/10/27 19:27:35;;;;;;;3.97;3.28;;;;;;;;;;6251192;22;20327;-87
2023/10/27 19:30:02;;;;;;;3.53;3.22;;;;;;;;;;6278480;22;20000;-87
2023/10/27 19:32:27;;;;;;;2.67;2.47;;;;;;;;;;6278744;22;20025;-87
2023/10/27 19:34:52;;;;;;;2.40;2.20;;;;;;;;;;6278810;22;20503;-88
2023/10/27 19:37:19;;;;;;;2.53;2.30;;;;;;;;;;6278484;22;20000;-88
2023/10/27 19:39:44;;;;;;;2.65;2.30;;;;;;;;;;6278393;22;20019;-88
2023/10/27 19:42:10;;;;;;;2.40;2.13;;;;;;;;;;6251554;22;20003;-88
2023/10/27 19:44:36;;;;;;;3.45;2.30;;;;;;;;;;6251409;22;20011;-87
2023/10/27 19:47:03;;;;;;;3.40;2.70;;;;;;;;;;6278259;22;20003;-87
2023/10/27 19:49:33;;;;;;;4.78;3.47;;;;;;;;;;6278451;22;19996;-87
2023/10/27 19:52:00;;;;;;;3.22;2.83;;;;;;;;;;6278409;22;20323;-88
2023/10/27 19:54:26;;;;;;;4.05;3.65;;;;;;;;;;6278258;22;20319;-87
2023/10/27 19:56:52;;;;;;;2.97;2.78;;;;;;;;;;6251815;22;20043;-87
2023/10/27 19:59:17;;;;;;;4.50;2.30;;;;;;;;;;6282125;22;20003;-89
2023/10/27 20:01:43;;;;;;;3.40;2.45;;;;;;;;;;6280902;22;20434;-88
2023/10/27 20:04:10;;;;;;;3.67;2.47;;;;;;;;;;6280352;22;20024;-89
2023/10/27 20:06:36;;;;;;;3.03;2.63;;;;;;;;;;6281924;22;20471;-88
2023/10/27 20:09:02;;;;;;;3.38;2.70;;;;;;;;;;6281562;22;20000;-87
2023/10/27 20:11:28;;;;;;;4.50;2.80;;;;;;;;;;6281988;22;20004;-87
2023/10/27 20:13:53;;;;;;;2.72;2.45;;;;;;;;;;6290788;22;20007;-86
2023/10/27 20:16:22;;;;;;;7.82;2.30;;;;;;;;;;6269753;22;20018;-87
2023/10/27 20:18:48;;;;;;;2.40;2.20;;;;;;;;;;6268502;22;20004;-86
2023/10/27 20:21:13;;;;;;;2.42;2.22;;;;;;;;;;6295923;22;20031;-86
2023/10/27 20:23:42;;;;;;;5.65;2.50;;;;;;;;;;6255382;22;20053;-86
2023/10/27 20:26:08;;;;;;;7.18;2.47;;;;;;;;;;6279049;22;20075;-87
2023/10/27 20:28:34;;;;;;;16.58;10.20;;;;;;;;;;6279329;22;20022;-87
2023/10/27 20:31:03;;;;;;;6.65;5.43;;;;;;;;;;6250982;22;19999;-86
2023/10/27 20:33:28;;;;;;;4.82;3.88;;;;;;;;;;6277480;22;20059;-87
2023/10/27 20:35:54;;;;;;;7.53;4.15;;;;;;;;;;6277953;22;20010;-86
2023/10/27 20:38:20;;;;;;;3.95;3.33;;;;;;;;;;6277541;22;20411;-86
2023/10/27 20:40:47;;;;;;;3.75;3.20;;;;;;;;;;6277391;22;20003;-85
2023/10/27 20:43:12;;;;;;;4.93;3.20;;;;;;;;;;6277799;22;20041;-86
2023/10/27 20:45:38;;;;;;;5.90;3.00;;;;;;;;;;6250227;22;20004;-85
2023/10/27 20:48:04;;;;;;;2.90;2.38;;;;;;;;;;6277270;22;20457;-86
2023/10/27 20:50:30;;;;;;;3.33;2.72;;;;;;;;;;6277627;22;20000;-86
2023/10/27 20:52:56;;;;;;;3.00;2.30;;;;;;;;;;6277704;22;20007;-86
2023/10/27 20:55:22;;;;;;;2.80;2.50;;;;;;;;;;6277401;22;20011;-87
2023/10/27 20:57:48;;;;;;;2.65;2.45;;;;;;;;;;6249962;22;20027;-87
2023/10/27 21:00:16;;;;;;;6.63;2.17;;;;;;;;;;6277235;22;20014;-86
2023/10/27 21:02:43;;;;;;;4.85;1.90;;;;;;;;;;6277611;22;20117;-88
2023/10/27 21:05:09;;;;;;;4.47;2.42;;;;;;;;;;6277364;22;20003;-86
2023/10/27 21:07:35;;;;;;;5.72;3.72;;;;;;;;;;6249945;22;20015;-87
2023/10/27 21:10:01;;;;;;;4.35;3.08;;;;;;;;;;6277298;22;20057;-87
2023/10/27 21:12:27;;;;;;;3.30;2.67;;;;;;;;;;6276831;22;20031;-86
2023/10/27 21:14:52;;;;;;;3.60;2.72;;;;;;;;;;6277493;22;19999;-86
2023/10/27 21:17:18;;;;;;;6.15;3.15;;;;;;;;;;6277084;22;20066;-87
2023/10/27 21:19:43;;;;;;;3.60;3.10;;;;;;;;;;6250382;22;20000;-87
2023/10/27 21:22:09;;;;;;;2.80;2.53;;;;;;;;;;6277573;22;20498;-85
2023/10/27 21:24:35;;;;;;;2.92;2.63;;;;;;;;;;6249625;22;20018;-85
2023/10/27 21:27:01;;;;;;;5.82;2.78;;;;;;;;;;6250207;22;20004;-87
2023/10/27 21:29:26;;;;;;;5.57;2.75;;;;;;;;;;6277235;22;20003;-87
2023/10/27 21:31:52;;;;;;;3.92;2.20;;;;;;;;;;6224751;22;20094;-87
2023/10/27 21:34:17;;;;;;;2.63;2.15;;;;;;;;;;6250104;22;20008;-87
2023/10/27 21:36:43;;;;;;;5.47;2.35;;;;;;;;;;6278102;22;20007;-87
2023/10/27 21:39:11;;;;;;;3.03;2.30;;;;;;;;;;6278065;22;20007;-88
2023/10/27 21:41:36;;;;;;;4.28;2.42;;;;;;;;;;6250183;22;20007;-88
2023/10/27 21:44:07;;;;;;;2.83;2.47;;;;;;;;;;6251573;22;20011;-87
2023/10/27 21:46:33;;;;;;;3.70;3.13;;;;;;;;;;6252409;22;20053;-87
2023/10/27 21:48:59;;;;;;;3.13;2.60;;;;;;;;;;6253282;22;20000;-87
